createdAt,value
2023-02-04T00:00:20.000Z,3.13
2023-02-04T00:02:47.263Z,3.07
2023-02-04T00:05:16.193Z,3.27
2023-02-04T00:07:43.303Z,3.07
2023-02-04T00:10:10.473Z,4.87
2023-02-04T00:12:37.260Z,4.97
2023-02-04T00:15:05.006Z,4.63
2023-02-04T00:17:31.950Z,5.37
2023-02-04T00:19:58.742Z,4.97
2023-02-04T00:22:28.226Z,5.23
2023-02-04T00:24:55.089Z,5.07
2023-02-04T00:27:21.943Z,5.80
2023-02-04T00:29:48.697Z,5.87
2023-02-04T00:32:15.547Z,4.90
2023-02-04T00:34:42.356Z,5.43
2023-02-04T00:37:09.166Z,5.50
2023-02-04T00:39:36.002Z,4.93
2023-02-04T00:42:02.863Z,5.83
2023-02-04T00:44:29.677Z,4.87
2023-02-04T00:46:57.208Z,4.97
2023-02-04T00:49:24.003Z,4.40
2023-02-04T00:51:51.353Z,5.27
2023-02-04T00:54:18.095Z,5.80
2023-02-04T00:56:45.026Z,4.20
2023-02-04T00:59:12.825Z,4.10
2023-02-04T01:01:40.091Z,4.20
2023-02-04T01:04:06.913Z,3.30
2023-02-04T01:06:33.762Z,4.73
2023-02-04T01:09:01.489Z,3.53
2023-02-04T01:11:29.279Z,4.00
2023-02-04T01:13:56.061Z,5.00
2023-02-04T01:16:22.957Z,3.90
2023-02-04T01:18:49.888Z,4.67
2023-02-04T01:21:16.804Z,4.70
2023-02-04T01:23:43.904Z,4.37
2023-02-04T01:26:10.658Z,3.93
2023-02-04T01:28:37.396Z,3.30
2023-02-04T01:31:04.295Z,3.00
2023-02-04T01:33:31.300Z,3.10
2023-02-04T01:35:58.196Z,2.60
2023-02-04T01:38:26.548Z,3.20
2023-02-04T01:40:53.698Z,2.43
2023-02-04T01:43:22.558Z,2.47
2023-02-04T01:45:50.636Z,2.77
2023-02-04T01:48:20.518Z,2.40
2023-02-04T01:50:53.897Z,2.30
2023-02-04T01:53:23.800Z,2.30
2023-02-04T01:55:51.082Z,2.27
2023-02-04T01:58:18.262Z,2.00
2023-02-04T02:00:45.256Z,1.93
2023-02-04T02:03:14.105Z,2.07
2023-02-04T02:05:50.384Z,1.70
2023-02-04T02:08:17.990Z,2.03
2023-02-04T02:10:48.015Z,2.20
2023-02-04T02:13:17.865Z,1.97
2023-02-04T02:15:44.744Z,2.20
2023-02-04T02:18:11.715Z,2.07
2023-02-04T02:20:38.798Z,1.70
2023-02-04T02:23:19.244Z,1.90
2023-02-04T02:25:46.641Z,1.90
2023-02-04T02:28:16.918Z,1.60
2023-02-04T02:30:49.199Z,1.90
2023-02-04T02:33:19.086Z,2.03
2023-02-04T02:35:48.435Z,2.00
2023-02-04T02:38:18.773Z,2.10
2023-02-04T02:40:47.875Z,1.87
2023-02-04T02:43:17.957Z,1.87
2023-02-04T02:45:45.446Z,2.00
2023-02-04T02:48:12.851Z,2.00
2023-02-04T02:50:40.697Z,2.07
2023-02-04T02:53:15.836Z,1.87
2023-02-04T02:55:43.841Z,2.63
2023-02-04T02:58:32.534Z,1.50
2023-02-04T03:01:06.113Z,1.67
2023-02-04T03:03:39.235Z,1.90
2023-02-04T03:06:13.904Z,1.83
2023-02-04T03:08:41.598Z,2.00
2023-02-04T03:11:08.442Z,1.97
2023-02-04T03:13:36.507Z,2.20
2023-02-04T03:16:04.805Z,3.00
2023-02-04T03:18:31.999Z,2.50
2023-02-04T03:20:59.279Z,2.30
2023-02-04T03:23:27.370Z,2.40
2023-02-04T03:25:54.398Z,2.27
2023-02-04T03:28:21.176Z,2.33
2023-02-04T03:30:53.767Z,2.23
2023-02-04T03:33:20.742Z,2.20
2023-02-04T03:35:47.627Z,2.10
2023-02-04T03:38:14.413Z,2.27
2023-02-04T03:40:41.159Z,2.07
2023-02-04T03:43:08.056Z,2.20
2023-02-04T03:45:44.928Z,2.30
2023-02-04T03:48:12.734Z,2.00
2023-02-04T03:50:39.682Z,2.60
2023-02-04T03:53:06.395Z,2.30
2023-02-04T03:55:33.632Z,2.53
2023-02-04T03:58:00.388Z,2.87
2023-02-04T04:00:27.261Z,2.50
2023-02-04T04:02:54.042Z,2.13
2023-02-04T04:05:20.880Z,1.93
2023-02-04T04:07:47.631Z,1.70
2023-02-04T04:10:14.515Z,1.73
2023-02-04T04:12:41.439Z,1.50
2023-02-04T04:15:11.405Z,1.53
2023-02-04T04:17:38.288Z,1.53
2023-02-04T04:20:05.545Z,1.67
2023-02-04T04:22:32.326Z,1.40
2023-02-04T04:24:59.207Z,1.40
2023-02-04T04:27:27.320Z,1.60
2023-02-04T04:29:54.087Z,1.10
2023-02-04T04:32:20.906Z,0.97
2023-02-04T04:34:48.702Z,1.40
2023-02-04T04:37:15.656Z,1.33
2023-02-04T04:39:43.095Z,1.17
2023-02-04T04:42:10.170Z,1.17
2023-02-04T04:44:37.225Z,1.50
2023-02-04T04:47:04.332Z,1.40
2023-02-04T04:49:31.244Z,1.50
2023-02-04T04:51:58.403Z,1.67
2023-02-04T04:54:25.328Z,1.57
2023-02-04T04:56:53.302Z,1.30
2023-02-04T04:59:20.054Z,1.27
2023-02-04T05:01:46.777Z,1.40
2023-02-04T05:04:13.574Z,1.70
2023-02-04T05:06:40.429Z,1.80
2023-02-04T05:09:07.292Z,1.50
2023-02-04T05:11:34.121Z,1.60
2023-02-04T05:14:01.164Z,1.30
2023-02-04T05:16:28.045Z,1.63
2023-02-04T05:18:54.825Z,1.70
2023-02-04T05:21:21.652Z,1.80
2023-02-04T05:23:48.428Z,1.50
2023-02-04T05:26:25.143Z,1.47
2023-02-04T05:28:56.247Z,1.80
2023-02-04T05:31:23.149Z,1.80
2023-02-04T05:33:49.980Z,1.60
2023-02-04T05:36:17.831Z,1.30
2023-02-04T05:38:44.610Z,1.67
2023-02-04T05:41:11.440Z,1.60
2023-02-04T05:43:38.512Z,1.60
2023-02-04T05:46:05.469Z,1.77
2023-02-04T05:48:32.365Z,1.67
2023-02-04T05:50:59.079Z,1.77
2023-02-04T05:53:26.259Z,1.73
2023-02-04T05:55:53.258Z,1.73
2023-02-04T05:58:20.067Z,1.50
2023-02-04T06:00:46.929Z,1.60
2023-02-04T06:03:14.590Z,1.90
2023-02-04T06:05:41.574Z,1.90
2023-02-04T06:08:08.559Z,1.47
2023-02-04T06:10:35.394Z,1.70
2023-02-04T06:13:02.226Z,2.10
2023-02-04T06:15:28.979Z,2.10
2023-02-04T06:17:55.795Z,1.93
2023-02-04T06:20:22.698Z,1.70
2023-02-04T06:22:52.037Z,1.83
2023-02-04T06:25:19.073Z,2.10
2023-02-04T06:27:45.928Z,1.73
2023-02-04T06:30:13.806Z,2.17
2023-02-04T06:32:41.405Z,1.80
2023-02-04T06:35:09.257Z,1.80
2023-02-04T06:37:36.094Z,1.63
2023-02-04T06:40:02.874Z,2.07
2023-02-04T06:42:29.621Z,1.70
2023-02-04T06:44:56.533Z,1.93
2023-02-04T06:47:23.243Z,2.03
2023-02-04T06:49:49.939Z,1.93
2023-02-04T06:52:16.685Z,2.10
2023-02-04T06:54:43.487Z,1.80
2023-02-04T06:57:11.149Z,2.03
2023-02-04T06:59:39.477Z,2.00
2023-02-04T07:02:07.740Z,3.00
2023-02-04T07:04:35.383Z,2.03
2023-02-04T07:07:02.311Z,2.20
2023-02-04T07:09:29.461Z,2.07
2023-02-04T07:11:56.624Z,2.57
2023-02-04T07:14:26.623Z,2.40
2023-02-04T07:16:53.481Z,2.40
2023-02-04T07:19:21.318Z,2.30
2023-02-04T07:21:48.260Z,2.03
2023-02-04T07:24:14.988Z,2.47
2023-02-04T07:26:41.708Z,2.50
2023-02-04T07:29:14.611Z,2.10
2023-02-04T07:31:45.463Z,2.07
2023-02-04T07:34:19.466Z,2.30
2023-02-04T07:36:46.436Z,1.70
2023-02-04T07:39:13.178Z,1.87
2023-02-04T07:41:39.949Z,1.90
2023-02-04T07:44:07.008Z,1.90
2023-02-04T07:46:33.881Z,1.63
2023-02-04T07:49:00.856Z,1.50
2023-02-04T07:51:28.095Z,1.60
2023-02-04T07:53:56.385Z,1.30
2023-02-04T07:56:23.472Z,1.57
2023-02-04T07:58:50.334Z,2.00
2023-02-04T08:01:17.244Z,1.57
2023-02-04T08:03:44.300Z,2.10
2023-02-04T08:06:11.709Z,1.63
2023-02-04T08:08:38.523Z,1.47
2023-02-04T08:11:05.506Z,1.70
2023-02-04T08:13:32.319Z,1.70
2023-02-04T08:15:59.288Z,1.30
2023-02-04T08:18:26.154Z,1.40
2023-02-04T08:20:52.944Z,1.07
2023-02-04T08:23:19.762Z,1.97
2023-02-04T08:25:47.961Z,1.57
2023-02-04T08:28:14.789Z,1.73
2023-02-04T08:30:41.635Z,1.53
2023-02-04T08:33:08.503Z,1.27
2023-02-04T08:35:35.304Z,1.63
2023-02-04T08:38:11.980Z,1.73
2023-02-04T08:40:38.922Z,1.23
2023-02-04T08:43:05.732Z,1.30
2023-02-04T08:45:32.469Z,1.60
2023-02-04T08:47:59.266Z,1.77
2023-02-04T08:50:26.820Z,1.50
2023-02-04T08:52:53.574Z,1.30
2023-02-04T08:55:20.511Z,1.50
2023-02-04T08:57:47.278Z,1.30
2023-02-04T09:00:14.587Z,1.30
2023-02-04T09:02:41.283Z,1.40
2023-02-04T09:05:08.299Z,1.10
2023-02-04T09:07:35.153Z,1.13
2023-02-04T09:10:01.961Z,1.00
2023-02-04T09:12:28.823Z,1.67
2023-02-04T09:14:55.578Z,1.23
2023-02-04T09:17:22.409Z,1.20
2023-02-04T09:19:51.494Z,1.13
2023-02-04T09:22:18.362Z,1.43
2023-02-04T09:24:45.161Z,1.17
2023-02-04T09:27:11.951Z,1.40
2023-02-04T09:29:38.865Z,0.97
2023-02-04T09:32:07.107Z,0.97
2023-02-04T09:34:33.995Z,0.93
2023-02-04T09:37:01.062Z,1.27
2023-02-04T09:39:29.733Z,1.13
2023-02-04T09:41:57.189Z,1.07
2023-02-04T09:44:27.871Z,1.33
2023-02-04T09:46:58.381Z,1.40
2023-02-04T09:49:26.530Z,1.00
2023-02-04T09:51:54.665Z,1.03
2023-02-04T09:54:23.285Z,2.00
2023-02-04T09:56:50.912Z,1.50
2023-02-04T09:59:23.001Z,0.90
2023-02-04T10:02:02.864Z,1.53
2023-02-04T10:04:29.819Z,1.70
2023-02-04T10:06:59.008Z,1.20
2023-02-04T10:09:26.147Z,1.10
2023-02-04T10:11:53.033Z,1.27
2023-02-04T10:14:22.724Z,1.13
2023-02-04T10:16:59.092Z,1.37
2023-02-04T10:19:28.883Z,1.50
2023-02-04T10:21:56.505Z,1.10
2023-02-04T10:24:26.603Z,1.10
2023-02-04T10:26:53.978Z,1.00
2023-02-04T10:29:25.975Z,1.10
2023-02-04T10:31:53.536Z,1.27
2023-02-04T10:34:23.372Z,1.10
2023-02-04T10:36:55.894Z,1.33
2023-02-04T10:39:23.557Z,1.20
2023-02-04T10:41:54.222Z,0.93
2023-02-04T10:44:32.390Z,1.13
2023-02-04T10:47:07.339Z,1.20
2023-02-04T10:49:35.255Z,1.27
2023-02-04T10:52:03.569Z,1.13
2023-02-04T10:54:38.008Z,1.20
2023-02-04T10:57:21.922Z,1.30
2023-02-04T10:59:51.153Z,1.47
2023-02-04T11:02:53.422Z,1.33
2023-02-04T11:05:29.223Z,1.20
2023-02-04T11:07:56.244Z,1.57
2023-02-04T11:10:31.487Z,1.10
2023-02-04T11:12:58.320Z,1.23
2023-02-04T11:15:50.996Z,1.33
2023-02-04T11:18:20.810Z,1.07
2023-02-04T11:20:53.544Z,0.90
2023-02-04T11:23:26.158Z,1.20
2023-02-04T11:26:14.561Z,1.80
2023-02-04T11:28:55.057Z,1.17
2023-02-04T11:31:21.917Z,0.90
2023-02-04T11:33:50.739Z,1.40
2023-02-04T11:36:17.729Z,0.87
2023-02-04T11:38:48.117Z,1.10
2023-02-04T11:41:33.449Z,1.23
2023-02-04T11:44:00.888Z,1.30
2023-02-04T11:46:29.308Z,1.90
2023-02-04T11:48:58.279Z,1.30
2023-02-04T11:51:32.643Z,0.90
2023-02-04T11:53:59.775Z,1.40
2023-02-04T11:56:29.725Z,1.70
2023-02-04T11:58:58.462Z,1.90
2023-02-04T12:01:32.370Z,1.50
2023-02-04T12:04:01.655Z,1.67
2023-02-04T12:06:34.241Z,1.40
2023-02-04T12:09:07.979Z,1.30
2023-02-04T12:11:35.481Z,1.03
2023-02-04T12:14:10.825Z,1.10
2023-02-04T12:16:48.799Z,1.30
2023-02-04T12:19:15.646Z,1.10
2023-02-04T12:21:42.410Z,1.10
2023-02-04T12:24:10.793Z,1.70
2023-02-04T12:26:37.618Z,1.03
2023-02-04T12:29:05.672Z,1.80
2023-02-04T12:31:34.480Z,1.10
2023-02-04T12:34:01.603Z,1.30
2023-02-04T12:36:29.816Z,0.97
2023-02-04T12:39:00.285Z,0.97
2023-02-04T12:41:28.453Z,1.60
2023-02-04T12:43:58.263Z,0.73
2023-02-04T12:46:25.144Z,1.33
2023-02-04T12:48:52.021Z,0.63
2023-02-04T12:51:22.131Z,1.13
2023-02-04T12:53:49.281Z,0.40
2023-02-04T12:56:16.152Z,0.80
2023-02-04T12:58:42.938Z,1.00
2023-02-04T13:01:09.826Z,0.57
2023-02-04T13:03:36.624Z,1.53
2023-02-04T13:06:03.547Z,1.33
2023-02-04T13:08:30.279Z,0.90
2023-02-04T13:10:57.138Z,1.60
2023-02-04T13:13:23.902Z,0.83
2023-02-04T13:15:52.170Z,0.83
2023-02-04T13:18:18.940Z,1.10
2023-02-04T13:20:46.226Z,1.30
2023-02-04T13:23:13.807Z,0.90
2023-02-04T13:25:40.861Z,1.40
2023-02-04T13:28:16.668Z,1.27
2023-02-04T13:30:43.610Z,1.20
2023-02-04T13:33:10.422Z,0.80
2023-02-04T13:35:38.235Z,1.17
2023-02-04T13:38:05.010Z,1.13
2023-02-04T13:40:31.775Z,1.07
2023-02-04T13:42:58.510Z,1.47
2023-02-04T13:45:25.330Z,1.20
2023-02-04T13:47:52.372Z,1.10
2023-02-04T13:50:19.240Z,1.20
2023-02-04T13:52:46.118Z,0.90
2023-02-04T13:55:12.868Z,1.47
2023-02-04T13:57:41.950Z,1.43
2023-02-04T14:00:10.232Z,1.20
2023-02-04T14:02:37.045Z,1.50
2023-02-04T14:05:03.909Z,1.23
2023-02-04T14:07:30.762Z,1.17
2023-02-04T14:09:57.856Z,1.60
2023-02-04T14:12:24.988Z,1.23
2023-02-04T14:14:51.801Z,2.23
2023-02-04T14:17:18.686Z,1.73
2023-02-04T14:19:45.475Z,2.10
2023-02-04T14:22:13.252Z,1.63
2023-02-04T14:24:42.525Z,1.73
2023-02-04T14:27:10.435Z,1.93
2023-02-04T14:29:37.381Z,1.80
2023-02-04T14:32:06.154Z,1.67
2023-02-04T14:34:33.002Z,1.77
2023-02-04T14:36:59.827Z,1.67
2023-02-04T14:39:26.672Z,1.70
2023-02-04T14:41:53.437Z,1.90
2023-02-04T14:44:21.029Z,1.60
2023-02-04T14:46:49.017Z,1.50
2023-02-04T14:49:17.217Z,1.53
2023-02-04T14:51:44.176Z,1.60
2023-02-04T14:54:11.130Z,1.50
2023-02-04T14:56:38.224Z,2.00
2023-02-04T14:59:05.265Z,2.33
2023-02-04T15:01:32.142Z,2.30
2023-02-04T15:03:59.148Z,2.03
2023-02-04T15:06:26.072Z,2.40
2023-02-04T15:08:52.975Z,2.83
2023-02-04T15:11:19.753Z,2.53
2023-02-04T15:13:47.070Z,2.50
2023-02-04T15:16:14.873Z,3.87
2023-02-04T15:18:42.567Z,2.53
2023-02-04T15:21:09.603Z,2.77
2023-02-04T15:23:36.377Z,2.90
2023-02-04T15:26:03.948Z,3.17
2023-02-04T15:28:31.486Z,2.70
2023-02-04T15:30:58.579Z,2.90
2023-02-04T15:33:25.581Z,2.30
2023-02-04T15:35:52.472Z,2.73
2023-02-04T15:38:19.278Z,3.50
2023-02-04T15:40:46.036Z,3.60
2023-02-04T15:43:12.833Z,3.73
2023-02-04T15:45:41.538Z,3.30
2023-02-04T15:48:08.588Z,2.97
2023-02-04T15:50:35.643Z,3.33
2023-02-04T15:53:04.950Z,3.00
2023-02-04T15:55:31.745Z,3.00
2023-02-04T15:57:58.487Z,3.10
2023-02-04T16:00:25.340Z,3.77
2023-02-04T16:02:52.194Z,3.20
2023-02-04T16:05:19.984Z,3.70
2023-02-04T16:07:46.832Z,3.20
2023-02-04T16:10:13.998Z,3.90
2023-02-04T16:12:40.781Z,3.20
2023-02-04T16:15:08.021Z,2.93
2023-02-04T16:17:35.081Z,3.40
2023-02-04T16:20:03.678Z,3.63
2023-02-04T16:22:30.781Z,2.60
2023-02-04T16:24:57.536Z,3.17
2023-02-04T16:27:24.339Z,3.17
2023-02-04T16:29:51.282Z,2.77
2023-02-04T16:32:18.035Z,2.90
2023-02-04T16:34:45.231Z,2.93
2023-02-04T16:37:12.417Z,3.13
2023-02-04T16:39:42.554Z,2.27
2023-02-04T16:42:10.000Z,2.90
2023-02-04T16:44:37.673Z,2.60
2023-02-04T16:47:08.491Z,2.37
2023-02-04T16:49:36.192Z,3.13
2023-02-04T16:52:05.089Z,2.60
2023-02-04T16:54:33.396Z,3.33
2023-02-04T16:57:01.514Z,3.00
2023-02-04T16:59:28.588Z,2.83
2023-02-04T17:02:00.531Z,2.87
2023-02-04T17:04:27.658Z,2.90
2023-02-04T17:06:54.498Z,3.30
2023-02-04T17:09:21.267Z,2.90
2023-02-04T17:11:48.153Z,4.73
2023-02-04T17:14:16.033Z,3.03
2023-02-04T17:16:44.022Z,3.50
2023-02-04T17:19:11.760Z,3.20
2023-02-04T17:21:41.350Z,3.47
2023-02-04T17:24:08.982Z,3.47
2023-02-04T17:26:39.454Z,3.43
2023-02-04T17:29:11.479Z,4.10
2023-02-04T17:31:39.267Z,3.53
2023-02-04T17:34:06.731Z,3.80
2023-02-04T17:36:34.014Z,3.50
2023-02-04T17:39:01.572Z,3.80
2023-02-04T17:41:28.471Z,3.97
2023-02-04T17:43:55.519Z,3.60
2023-02-04T17:46:22.514Z,4.23
2023-02-04T17:48:50.040Z,3.40
2023-02-04T17:51:17.041Z,3.13
2023-02-04T17:53:44.028Z,2.87
2023-02-04T17:56:12.533Z,3.17
2023-02-04T17:58:40.715Z,3.50
2023-02-04T18:01:14.309Z,3.23
2023-02-04T18:03:46.440Z,3.33
2023-02-04T18:06:19.111Z,3.13
2023-02-04T18:08:46.245Z,3.90
2023-02-04T18:11:28.408Z,3.37
2023-02-04T18:14:00.445Z,3.73
2023-02-04T18:16:30.478Z,3.73
2023-02-04T18:19:22.311Z,3.43
2023-02-04T18:21:49.870Z,4.30
2023-02-04T18:24:39.916Z,4.67
2023-02-04T18:27:15.697Z,3.63
2023-02-04T18:29:45.311Z,3.80
2023-02-04T18:32:33.015Z,3.87
2023-02-04T18:35:02.406Z,4.17
2023-02-04T18:37:32.396Z,4.10
2023-02-04T18:40:24.792Z,4.77
2023-02-04T18:43:01.808Z,4.50
2023-02-04T18:45:31.454Z,4.67
2023-02-04T18:48:01.380Z,4.77
2023-02-04T18:50:35.501Z,6.23
2023-02-04T18:53:15.402Z,5.63
2023-02-04T18:55:44.856Z,5.43
2023-02-04T18:58:26.875Z,4.93
2023-02-04T19:01:00.149Z,4.93
2023-02-04T19:03:42.153Z,5.67
2023-02-04T19:06:38.450Z,4.80
2023-02-04T19:09:14.583Z,4.70
2023-02-04T19:11:42.870Z,4.97
2023-02-04T19:14:18.902Z,4.80
2023-02-04T19:16:47.010Z,4.93
2023-02-04T19:19:30.081Z,5.60
2023-02-04T19:21:57.011Z,4.83
2023-02-04T19:24:26.754Z,5.50
2023-02-04T19:26:55.922Z,5.50
2023-02-04T19:29:24.925Z,4.70
2023-02-04T19:32:05.463Z,4.77
2023-02-04T19:34:37.494Z,5.23
2023-02-04T19:37:26.883Z,5.20
2023-02-04T19:39:55.365Z,5.17
2023-02-04T19:42:36.272Z,5.20
2023-02-04T19:45:18.594Z,4.90
2023-02-04T19:47:45.951Z,5.40
2023-02-04T19:50:12.731Z,5.03
2023-02-04T19:53:09.436Z,5.53
2023-02-04T19:55:44.369Z,5.03
2023-02-04T19:58:23.722Z,5.07
2023-02-04T20:01:05.465Z,5.57
2023-02-04T20:03:37.172Z,4.87
2023-02-04T20:06:10.054Z,5.27
2023-02-04T20:08:45.047Z,5.03
2023-02-04T20:11:25.783Z,4.93
2023-02-04T20:14:01.409Z,4.70
2023-02-04T20:16:41.521Z,4.80
2023-02-04T20:19:30.431Z,5.03
2023-02-04T20:22:18.403Z,4.90
2023-02-04T20:24:57.142Z,5.43
2023-02-04T20:27:38.855Z,4.83
2023-02-04T20:30:10.819Z,4.97
2023-02-04T20:32:48.494Z,4.77
2023-02-04T20:39:11.614Z,5.03
2023-02-04T20:41:39.706Z,5.03
2023-02-04T20:44:15.408Z,5.27
2023-02-04T20:46:42.532Z,5.30
2023-02-04T20:49:24.111Z,5.37
2023-02-04T20:51:56.126Z,5.00
2023-02-04T20:54:27.869Z,5.07
2023-02-04T20:56:54.932Z,5.50
2023-02-04T20:59:33.822Z,5.20
2023-02-04T21:02:04.792Z,5.73
2023-02-04T21:04:38.505Z,5.20
2023-02-04T21:07:20.723Z,4.70
2023-02-04T21:09:48.243Z,5.03
2023-02-04T21:12:16.174Z,6.73
2023-02-04T21:14:44.148Z,6.10
2023-02-04T21:17:11.101Z,5.43
2023-02-04T21:19:38.096Z,5.83
2023-02-04T21:22:04.937Z,5.20
2023-02-04T21:24:31.942Z,6.10
2023-02-04T21:26:58.835Z,6.20
2023-02-04T21:29:26.181Z,5.13
2023-02-04T21:31:54.725Z,6.27
2023-02-04T21:34:22.308Z,5.70
2023-02-04T21:36:49.132Z,5.57
2023-02-04T21:39:16.039Z,5.57
2023-02-04T21:41:43.049Z,6.40
2023-02-04T21:44:09.950Z,5.80
2023-02-04T21:46:36.827Z,5.87
2023-02-04T21:49:05.231Z,5.10
2023-02-04T21:51:32.057Z,5.47
2023-02-04T21:54:00.025Z,5.70
2023-02-04T21:56:27.396Z,6.80
2023-02-04T21:58:54.695Z,5.60
2023-02-04T22:01:21.925Z,6.23
2023-02-04T22:03:49.227Z,6.03
2023-02-04T22:06:16.704Z,5.33
2023-02-04T22:08:43.737Z,5.67
2023-02-04T22:11:12.210Z,6.23
2023-02-04T22:13:39.301Z,5.47
2023-02-04T22:16:06.466Z,6.03
2023-02-04T22:18:33.632Z,6.00
2023-02-04T22:21:02.727Z,7.30
2023-02-04T22:23:30.103Z,5.80
2023-02-04T22:25:57.233Z,6.13
2023-02-04T22:28:24.208Z,6.40
2023-02-04T22:30:52.787Z,6.67
2023-02-04T22:33:20.861Z,6.63
2023-02-04T22:35:48.490Z,5.70
2023-02-04T22:38:15.429Z,6.53
2023-02-04T22:40:42.243Z,5.93
2023-02-04T22:43:09.232Z,6.23
2023-02-04T22:45:36.189Z,5.53
2023-02-04T22:48:03.086Z,6.27
2023-02-04T22:50:29.914Z,6.00
2023-02-04T22:52:57.885Z,6.70
2023-02-04T22:55:24.633Z,6.37
2023-02-04T22:57:51.631Z,6.60
2023-02-04T23:00:18.450Z,5.77
2023-02-04T23:02:45.467Z,5.83
2023-02-04T23:05:12.188Z,5.90
2023-02-04T23:07:39.185Z,6.17
2023-02-04T23:10:06.452Z,6.27
2023-02-04T23:12:33.436Z,6.80
2023-02-04T23:15:00.236Z,6.40
2023-02-04T23:17:27.032Z,6.30
2023-02-04T23:19:53.854Z,6.43
2023-02-04T23:22:22.265Z,7.20
2023-02-04T23:24:49.704Z,5.60
2023-02-04T23:27:16.693Z,6.23
2023-02-04T23:29:44.601Z,5.70
2023-02-04T23:32:11.333Z,5.77
2023-02-04T23:34:38.346Z,5.57
2023-02-04T23:37:05.159Z,6.20
2023-02-04T23:39:32.346Z,6.00
2023-02-04T23:41:59.152Z,5.63
2023-02-04T23:44:25.998Z,5.80
2023-02-04T23:46:52.940Z,5.43
2023-02-04T23:49:20.197Z,5.70
2023-02-04T23:51:47.205Z,5.37
2023-02-04T23:54:14.587Z,5.97
2023-02-04T23:56:41.608Z,6.50
2023-02-04T23:59:08.705Z,5.10
